Historyczne dane pomiarowe

Dodano dane terminowe – wersja testowa.

Dane z okresu 1951-2019

Wersja bazy: 1.34 [2019-03-16, lista zmian], aktualizacja planowana na 2019-04-15

Dane meteo z obszaru Polski uzyskane na podstawie danych udostępnionych przez Instytut Meteorologii i Gospodarki Wodnej – Państwowy Instytut Badawczy.

 

Wybierz Datę:    

       

TemperaturaWilgotnośćZachmurzenieWiatrCiśnienieWidzialnośćZjawiska
 Data    tng td wb rh cc ccl cl cm ch dir g1 g2 mslp ppp      
1999-08-04 00:00:00 10.7--- 9.0 9.889wxwx2wx--1017.4 992.5 0.0---wx
1999-08-04 01:00:00 9.5--- 8.2 8.891wxwx1wx--1017.2 992.2----wx
1999-08-04 02:00:00 8.9--- 7.7 8.392wxwx1wx--1017.3 992.3----wx
1999-08-04 03:00:00 8.5--- 7.5 8.094wxwx1wx--1017.5 992.4----wx
1999-08-04 04:00:00 9.0--- 8.0 8.594wxwx1wx--1017.5 992.5----wx
1999-08-04 05:00:00 11.7--- 9.9 10.789wxwx0wx--1017.3 992.5----wx
1999-08-04 06:00:00 15.1--- 10.3 12.473wxwxwx0wx--1017.0 992.5 0.0---wx
1999-08-04 07:00:00 16.4--- 10.8 13.270wxwxwx1wx--1016.9 992.5----wx
1999-08-04 08:00:00 18.0--- 12.6 14.871wxwxwx0wx--1016.6 992.4----wx
1999-08-04 09:00:00 22.8--- 10.6 15.646wxwx0wx--1015.9 992.1----wx
1999-08-04 10:00:00 23.8--- 10.2 15.842wxwxwx1wx--1015.6 991.9----wx
1999-08-04 11:00:00 24.6--- 14.5 18.253wxwxwx1wx--1015.3 991.6----wx
1999-08-04 12:00:00 25.2--- 9.0 15.836wxwxwx1wx--1014.8 991.2 0.0---wx
1999-08-04 13:00:00 24.4--- 10.1 16.041wxwxwx2wx--1014.7 991.0----wx
1999-08-04 14:00:00 25.0--- 9.6 16.038wxwxwx3wx--1014.2 990.6----wx
1999-08-04 15:00:00 25.4--- 9.3 16.036wxwxwx3wx--1014.0 990.4----wx
1999-08-04 16:00:00 25.0--- 9.1 15.837wxwx2wx--1013.8 990.2----wx
1999-08-04 17:00:00 24.2--- 10.3 16.041wxwx2wx--1013.9 990.2----wx
1999-08-04 18:00:00 22.8--- 11.4 16.049wxwx1wx--1014.3 990.5 0.0---wx
1999-08-04 19:00:00 17.8--- 12.4 14.671wxwx0wx--1014.9 990.7----wx
1999-08-04 20:00:00 15.2--- 12.3 13.583wxwx0wx--1015.3 990.9----wx
1999-08-04 21:00:00 13.6--- 10.8 12.083wxwx0wx--1015.5 990.9----wx
1999-08-04 22:00:00 12.2--- 10.0 11.087wxwx2wx--1016.0 991.3----wx
1999-08-04 23:00:00 11.6--- 9.6 10.587wxwx1wx--1016.2 991.4----wx

 

Źródłem pochodzenia danych jest Instytut Meteorologii i Gospodarki Wodnej – Państwowy Instytut Badawczy. Dane Instytutu Meteorologii i Gospodarki Wodnej – Państwowego Instytutu Badawczego zostały przetworzone.

Dane źródłowe można odnaleźć na stronie https://dane.imgw.pl